This is the latest recevied weather packets stored in our database for station/object YO8PIC-5. If no packets are shown the sender has not sent any weather packets the latest 10 day(s).
| Time | Temp. | Humidity | Pressure | Rain* | Wind** | Luminosity | Snow |
|---|---|---|---|---|---|---|---|
| 1777915063 | 16.11° C | 55% | 1012.8 hPa | - | - | - | - |
| 1777914162 | 18.33° C | 43% | 1012.7 hPa | - | - | - | - |
| 1777913262 | 20.56° C | 33% | 1012.5 hPa | - | - | - | - |
| 1777912362 | 21.67° C | 31% | 1012.5 hPa | - | - | - | - |
| 1777911462 | 23.89° C | 30% | 1012.6 hPa | - | - | - | - |
| 1777910894 | 22.78° C | 29% | 1012.6 hPa | - | - | - | - |
| 1777909994 | 23.33° C | 27% | 1012.6 hPa | - | - | - | - |
| 1777909094 | 22.78° C | 27% | 1012.4 hPa | - | - | - | - |
| 1777908194 | 25° C | 25% | 1012.7 hPa | - | - | - | - |
| 1777907294 | 25° C | 25% | 1012.7 hPa | - | - | - | - |
| 1777906393 | 26.11° C | 25% | 1012.7 hPa | - | - | - | - |
| 1777905493 | 25° C | 25% | 1012.9 hPa | - | - | - | - |
| 1777904593 | 24.44° C | 27% | 1012.9 hPa | - | - | - | - |
| 1777903692 | 25° C | 26% | 1013.1 hPa | - | - | - | - |
| 1777903588 | 26.11° C | 23% | 1013.1 hPa | - | - | - | - |
| 1777903396 | 26.67° C | 25% | 1013 hPa | - | - | - | - |
| 1777902494 | 26.11° C | 24% | 1013.1 hPa | - | - | - | - |
| 1777901736 | 26.11° C | 27% | 1013.3 hPa | - | - | - | - |
| 1777901224 | 24.44° C | 25% | 1013.4 hPa | - | - | - | - |
| 1777900324 | 25° C | 27% | 1013.4 hPa | - | - | - | - |
| 1777899423 | 25° C | 27% | 1013.5 hPa | - | - | - | - |
| 1777898522 | 25.56° C | 27% | 1013.4 hPa | - | - | - | - |
| 1777897628 | 25.56° C | 28% | 1013.6 hPa | - | - | - | - |
| 1777896728 | 24.44° C | 27% | 1013.7 hPa | - | - | - | - |
| 1777895827 | 25° C | 27% | 1013.9 hPa | - | - | - | - |
* Rain since midnight (hover to see other rain measurements)
** Current wind speed in m/s (hover to see current wind gust speed)